Time;durP1;ratioP1;P1;durP2;ratioP2;P2;SDS_P1;SDS_P2;PMS_P1;PMS_P2;Temp;Humidity;BMP_temperature;BMP_pressure;BME280_temperature;BME280_humidity;BME280_pressure;Samples;Min_cycle;Max_cycle;Signal;HPM_P1;HPM_P2
2022/09/07 00:02:21;;;;;;;12.20;7.23;;;17.60;61.70;;;;;;4953736;28;46400;-66
2022/09/07 00:04:46;;;;;;;17.00;6.40;;;17.60;60.90;;;;;;4953570;28;46406;-67
2022/09/07 00:07:12;;;;;;;16.53;7.60;;;17.50;61.90;;;;;;4952372;28;46386;-65
2022/09/07 00:09:38;;;;;;;14.80;7.57;;;17.50;62.10;;;;;;4953432;28;46394;-68
2022/09/07 00:12:04;;;;;;;12.47;6.63;;;17.40;62.20;;;;;;4952861;28;46358;-68
2022/09/07 00:14:29;;;;;;;21.30;7.47;;;17.40;61.50;;;;;;4954535;28;46525;-68
2022/09/07 00:16:56;;;;;;;17.23;7.30;;;17.30;62.40;;;;;;4953380;28;46416;-68
2022/09/07 00:19:22;;;;;;;14.37;6.60;;;17.30;62.60;;;;;;4952697;28;46349;-68
2022/09/07 00:21:48;;;;;;;19.23;7.90;;;17.20;62.90;;;;;;4957871;28;46404;-67
2022/09/07 00:24:14;;;;;;;23.03;9.40;;;17.10;62.20;;;;;;4953030;28;46405;-67
2022/09/07 00:26:39;;;;;;;23.20;7.80;;;17.10;63.10;;;;;;4948377;28;46550;-68
2022/09/07 00:29:06;;;;;;;22.60;8.63;;;17.10;63.40;;;;;;4951296;28;46360;-68
2022/09/07 00:31:32;;;;;;;18.60;7.60;;;17.10;63.60;;;;;;4955699;28;46036;-67
2022/09/07 00:33:59;;;;;;;13.37;6.30;;;17.00;62.80;;;;;;4954166;28;46392;-66
2022/09/07 00:36:25;;;;;;;12.57;7.00;;;17.00;63.80;;;;;;4967741;28;45837;-68
2022/09/07 00:38:52;;;;;;;20.30;8.30;;;17.00;63.90;;;;;;4955106;28;46671;-68
2022/09/07 00:41:20;;;;;;;17.60;9.33;;;17.00;63.90;;;;;;4951866;28;46396;-68
2022/09/07 00:43:48;;;;;;;31.87;9.40;;;17.00;63.10;;;;;;4952475;28;46409;-67
2022/09/07 00:46:19;;;;;;;16.93;9.00;;;17.00;63.90;;;;;;4953012;28;46447;-67
2022/09/07 00:49:11;;;;;;;20.80;9.20;;;17.00;64.00;;;;;;4955548;28;46591;-68
2022/09/07 00:51:42;;;;;;;18.53;9.90;;;17.10;64.10;;;;;;4955450;28;46427;-68
2022/09/07 00:54:13;;;;;;;19.93;8.93;;;17.10;63.30;;;;;;4955656;28;46439;-68
2022/09/07 00:56:42;;;;;;;15.50;8.80;;;17.10;65.30;;;;;;4956417;28;46412;-68
2022/09/07 00:59:10;;;;;;;17.10;8.30;;;17.10;63.90;;;;;;4953967;28;46424;-68
2022/09/07 01:01:37;;;;;;;19.30;8.83;;;17.20;63.80;;;;;;4953745;28;46395;-67
2022/09/07 01:04:03;;;;;;;21.60;9.40;;;17.20;62.60;;;;;;4957590;28;46693;-67
2022/09/07 01:06:35;;;;;;;18.13;7.53;;;17.30;63.40;;;;;;4956217;28;46454;-67
2022/09/07 01:09:13;;;;;;;16.93;8.37;;;17.30;63.20;;;;;;4955447;28;47360;-67
2022/09/07 01:11:39;;;;;;;14.53;8.30;;;17.30;63.10;;;;;;4959280;28;46365;-67
2022/09/07 01:14:08;;;;;;;24.10;9.20;;;17.30;62.20;;;;;;4954326;28;46479;-67
2022/09/07 01:17:05;;;;;;;22.80;8.93;;;17.30;63.10;;;;;;4957441;28;46373;-67
2022/09/07 01:19:49;;;;;;;19.87;8.67;;;17.40;63.30;;;;;;4958544;28;47343;-68
2022/09/07 01:22:39;;;;;;;12.47;8.00;;;17.40;63.30;;;;;;4953556;28;46286;-67
2022/09/07 01:25:37;;;;;;;21.07;8.47;;;17.50;61.90;;;;;;4955785;28;46511;-68
2022/09/07 01:28:14;;;;;;;15.50;8.63;;;17.60;62.90;;;;;;4953673;28;46564;-67
2022/09/07 01:30:54;;;;;;;13.93;8.37;;;17.60;62.50;;;;;;4957090;28;46639;-67
2022/09/07 01:33:43;;;;;;;16.57;7.37;;;17.70;61.30;;;;;;4952901;28;46329;-67
2022/09/07 01:36:40;;;;;;;16.93;7.47;;;17.70;62.40;;;;;;4954738;28;46423;-69
2022/09/07 01:39:06;;;;;;;18.77;7.33;;;17.80;62.40;;;;;;4965987;28;45875;-69
2022/09/07 01:41:53;;;;;;;18.93;7.97;;;17.90;62.10;;;;;;4965120;28;46588;-68
2022/09/07 01:44:34;;;;;;;16.10;8.87;;;18.00;61.00;;;;;;4953471;28;46547;-68
2022/09/07 01:47:11;;;;;;;13.73;8.00;;;18.00;61.70;;;;;;4950718;28;46449;-68
2022/09/07 01:49:59;;;;;;;18.97;7.97;;;18.00;61.70;;;;;;4953206;28;46429;-68
2022/09/07 01:52:33;;;;;;;13.83;7.87;;;18.00;61.90;;;;;;4951417;28;46434;-68
2022/09/07 01:55:09;;;;;;;20.90;8.40;;;18.00;60.90;;;;;;4955676;28;46437;-68
2022/09/07 01:57:53;;;;;;;18.20;7.43;;;17.90;62.10;;;;;;4961920;28;46450;-68
2022/09/07 02:00:19;;;;;;;24.93;7.10;;;17.90;62.40;;;;;;4959974;28;46459;-68
2022/09/07 02:03:10;;;;;;;17.33;7.10;;;17.80;61.70;;;;;;4958521;28;46513;-68
2022/09/07 02:05:45;;;;;;;18.70;6.40;;;17.80;62.80;;;;;;4957345;28;46382;-68
2022/09/07 02:08:19;;;;;;;10.20;6.53;;;17.80;63.90;;;;;;4956210;28;46575;-68
2022/09/07 02:11:01;;;;;;;13.20;6.00;;;17.80;62.90;;;;;;4959134;28;46369;-68
2022/09/07 02:13:42;;;;;;;17.90;6.20;;;17.80;62.00;;;;;;4954962;28;47499;-68
2022/09/07 02:16:15;;;;;;;20.47;7.00;;;17.80;63.00;;;;;;4955316;28;46440;-68
2022/09/07 02:18:45;;;;;;;11.83;6.50;;;17.80;62.70;;;;;;4955248;28;45759;-67
2022/09/07 02:21:14;;;;;;;17.40;6.40;;;17.80;62.60;;;;;;4956873;28;46542;-68
2022/09/07 02:23:47;;;;;;;15.60;6.23;;;17.80;61.70;;;;;;4956497;28;46671;-68
2022/09/07 02:26:18;;;;;;;12.50;6.37;;;17.80;62.80;;;;;;4954269;28;46439;-68
2022/09/07 02:28:44;;;;;;;15.70;6.43;;;17.80;62.60;;;;;;4956480;28;46749;-67
2022/09/07 02:31:10;;;;;;;14.37;5.50;;;17.80;62.50;;;;;;4955971;28;46617;-68
2022/09/07 02:33:36;;;;;;;11.30;5.83;;;17.80;61.30;;;;;;4955683;28;46984;-68
2022/09/07 02:36:03;;;;;;;21.47;5.07;;;17.80;62.30;;;;;;4956876;28;46455;-67
2022/09/07 02:38:29;;;;;;;16.00;5.30;;;17.80;62.20;;;;;;4949526;28;45902;-67
2022/09/07 02:40:58;;;;;;;18.83;5.77;;;17.80;62.10;;;;;;4952202;28;46442;-67
2022/09/07 02:43:24;;;;;;;10.93;4.83;;;17.80;60.80;;;;;;4952900;28;46488;-67
2022/09/07 02:45:50;;;;;;;9.27;4.90;;;17.80;61.80;;;;;;4952214;28;46317;-67
2022/09/07 02:48:34;;;;;;;13.40;4.83;;;17.90;61.70;;;;;;4954500;28;46368;-68
2022/09/07 02:51:51;;;;;;;9.80;4.83;;;17.90;61.60;;;;;;4951225;28;46373;-67
2022/09/07 02:54:36;;;;;;;15.03;5.20;;;17.90;60.60;;;;;;4957100;28;46555;-66
2022/09/07 02:57:13;;;;;;;13.77;5.27;;;17.80;61.60;;;;;;4957369;28;46490;-67
2022/09/07 03:00:00;;;;;;;8.83;4.90;;;17.90;61.50;;;;;;4954737;28;46398;-68
2022/09/07 03:03:03;;;;;;;16.77;5.30;;;17.90;61.10;;;;;;4954366;28;46481;-68
2022/09/07 03:06:10;;;;;;;17.27;5.20;;;17.90;59.80;;;;;;4960096;28;47373;-67
2022/09/07 03:08:48;;;;;;;15.53;4.70;;;18.00;60.50;;;;;;4963151;28;46417;-68
2022/09/07 03:11:14;;;;;;;12.10;4.40;;;18.00;60.30;;;;;;4953051;28;46479;-68
2022/09/07 03:13:39;;;;;;;8.83;4.63;;;18.00;59.30;;;;;;4954513;28;45941;-68
2022/09/07 03:16:05;;;;;;;7.83;4.40;;;18.00;60.20;;;;;;4953056;28;46490;-68
2022/09/07 03:18:31;;;;;;;12.23;5.40;;;18.00;60.30;;;;;;4952909;28;46533;-67
2022/09/07 03:20:56;;;;;;;17.40;4.80;;;18.00;60.30;;;;;;4952151;28;46463;-67
2022/09/07 03:23:22;;;;;;;12.77;5.40;;;18.00;59.30;;;;;;4954236;28;46395;-68
2022/09/07 03:25:48;;;;;;;15.60;5.47;;;18.00;60.20;;;;;;4951827;28;47146;-68
2022/09/07 03:28:14;;;;;;;11.50;4.43;;;18.00;60.00;;;;;;4949010;28;45778;-68
2022/09/07 03:30:42;;;;;;;11.27;4.03;;;18.00;60.10;;;;;;4953757;28;46489;-68
2022/09/07 03:33:08;;;;;;;11.43;4.70;;;18.00;59.20;;;;;;4954523;28;46514;-68
2022/09/07 03:35:34;;;;;;;12.77;5.40;;;18.00;60.10;;;;;;4956244;28;46431;-67
2022/09/07 03:38:00;;;;;;;7.67;4.60;;;18.00;60.00;;;;;;4951813;28;46530;-68
2022/09/07 03:40:26;;;;;;;8.93;4.07;;;18.10;60.10;;;;;;4954124;28;47324;-68
2022/09/07 03:42:52;;;;;;;19.90;4.80;;;18.10;59.10;;;;;;4952836;28;46577;-68
2022/09/07 03:45:18;;;;;;;10.93;3.97;;;18.10;61.10;;;;;;4953476;28;46625;-67
2022/09/07 03:47:44;;;;;;;10.40;4.37;;;18.00;60.00;;;;;;4952784;28;46480;-68
2022/09/07 03:50:09;;;;;;;12.87;4.30;;;18.00;61.10;;;;;;4955810;28;46426;-68
2022/09/07 03:52:35;;;;;;;8.70;4.70;;;18.00;60.00;;;;;;4958440;28;46699;-68
2022/09/07 03:55:02;;;;;;;6.30;4.03;;;18.00;59.10;;;;;;4952289;28;46663;-67
2022/09/07 03:57:27;;;;;;;10.53;4.57;;;18.00;60.10;;;;;;4952318;28;46706;-68
2022/09/07 03:59:53;;;;;;;12.53;4.30;;;18.00;60.00;;;;;;4952995;28;46571;-68
2022/09/07 04:02:19;;;;;;;9.47;4.00;;;18.00;60.00;;;;;;4955400;28;46471;-68
2022/09/07 04:04:47;;;;;;;11.00;3.70;;;18.00;59.10;;;;;;4951529;28;46451;-67
2022/09/07 04:07:13;;;;;;;10.87;4.50;;;18.00;60.00;;;;;;4955123;28;46382;-67
2022/09/07 04:09:39;;;;;;;7.93;4.27;;;18.00;59.90;;;;;;4953446;28;46337;-67
2022/09/07 04:12:05;;;;;;;14.80;4.27;;;18.00;60.00;;;;;;4952496;28;46790;-68
2022/09/07 04:14:30;;;;;;;12.77;4.50;;;18.00;59.30;;;;;;4955395;28;47330;-68
2022/09/07 04:16:56;;;;;;;14.03;5.20;;;17.90;60.20;;;;;;4950153;28;46408;-68
2022/09/07 04:19:22;;;;;;;12.37;4.27;;;17.90;60.40;;;;;;4951328;28;46459;-67
2022/09/07 04:21:48;;;;;;;11.13;4.37;;;17.90;60.30;;;;;;4948118;28;46404;-67
2022/09/07 04:24:15;;;;;;;14.73;4.80;;;18.00;59.40;;;;;;4951681;28;46480;-67
2022/09/07 04:26:42;;;;;;;9.33;3.97;;;18.00;60.20;;;;;;4961734;28;45809;-68
2022/09/07 04:32:30;;;;;;;11.33;4.47;;;18.10;60.20;;;;;;4947397;28;46996;-68
2022/09/07 04:34:55;;;;;;;11.10;4.47;;;18.00;59.10;;;;;;4942773;28;46727;-68
2022/09/07 04:37:21;;;;;;;7.13;3.73;;;18.10;60.40;;;;;;4943730;28;46468;-67
2022/09/07 04:39:47;;;;;;;13.07;4.13;;;18.10;60.30;;;;;;4960052;28;45821;-68
2022/09/07 04:42:12;;;;;;;14.87;3.90;;;18.10;60.30;;;;;;4954251;28;47050;-68
2022/09/07 04:44:38;;;;;;;9.20;4.33;;;18.00;59.30;;;;;;4962407;28;47331;-68
2022/09/07 04:47:04;;;;;;;15.47;4.47;;;18.10;60.40;;;;;;4958141;28;46451;-68
2022/09/07 04:49:29;;;;;;;12.10;4.13;;;18.10;60.30;;;;;;4948243;28;46534;-68
2022/09/07 04:51:55;;;;;;;10.70;4.00;;;18.10;60.20;;;;;;4949089;28;46335;-68
2022/09/07 04:54:20;;;;;;;7.27;4.07;;;18.20;59.20;;;;;;4943113;28;46980;-67
2022/09/07 04:56:46;;;;;;;11.57;4.20;;;18.20;59.90;;;;;;4958442;28;46262;-69
2022/09/07 04:59:11;;;;;;;7.70;3.93;;;18.30;59.40;;;;;;4947616;28;46480;-69
2022/09/07 05:01:37;;;;;;;12.10;4.50;;;18.30;59.30;;;;;;4942876;28;46487;-67
2022/09/07 05:04:03;;;;;;;9.70;4.33;;;18.30;58.40;;;;;;4949653;28;46473;-69
2022/09/07 05:06:29;;;;;;;11.70;4.10;;;18.30;59.40;;;;;;4934039;28;46692;-69
2022/09/07 05:08:56;;;;;;;10.30;3.80;;;18.30;59.90;;;;;;4951948;28;46656;-69
2022/09/07 05:11:23;;;;;;;10.93;4.00;;;18.30;59.90;;;;;;4960212;28;46528;-69
2022/09/07 05:13:48;;;;;;;21.27;3.87;;;18.40;58.50;;;;;;4947147;28;46502;-68
2022/09/07 05:16:38;;;;;;;10.63;3.90;;;18.40;59.40;;;;;;4958860;28;46495;-69
2022/09/07 05:19:04;;;;;;;9.60;4.37;;;18.50;59.50;;;;;;4944898;28;46535;-69
2022/09/07 05:21:32;;;;;;;9.20;4.40;;;18.50;59.50;;;;;;4952771;28;46471;-69
2022/09/07 05:23:59;;;;;;;17.63;5.33;;;18.50;58.40;;;;;;4945667;28;46026;-70
2022/09/07 05:26:27;;;;;;;13.27;4.00;;;18.50;59.50;;;;;;4950793;28;46732;-69
2022/09/07 05:28:54;;;;;;;6.43;3.63;;;18.50;59.50;;;;;;4956273;28;46447;-69
2022/09/07 05:31:21;;;;;;;13.73;4.40;;;18.40;59.50;;;;;;4933857;28;46466;-67
2022/09/07 05:33:52;;;;;;;6.67;3.70;;;18.20;60.00;;;;;;4948090;28;47344;-67
2022/09/07 05:36:18;;;;;;;11.73;4.30;;;18.10;61.40;;;;;;4950777;28;46553;-69
2022/09/07 05:38:43;;;;;;;10.43;4.17;;;18.00;62.00;;;;;;4952388;28;46935;-67
2022/09/07 05:41:13;;;;;;;10.30;4.20;;;18.00;62.30;;;;;;4952799;28;46429;-68
2022/09/07 05:43:40;;;;;;;14.40;4.97;;;18.00;61.40;;;;;;4953275;28;47197;-68
2022/09/07 05:46:06;;;;;;;9.63;4.17;;;17.90;62.50;;;;;;4947429;28;46537;-68
2022/09/07 05:48:32;;;;;;;13.20;5.93;;;17.90;62.80;;;;;;4949759;28;46818;-68
2022/09/07 05:50:57;;;;;;;10.20;4.13;;;18.10;62.80;;;;;;4949215;28;46567;-68
2022/09/07 05:53:23;;;;;;;10.50;4.90;;;18.30;61.10;;;;;;4953589;28;47337;-69
2022/09/07 05:55:49;;;;;;;17.90;4.70;;;18.30;62.00;;;;;;4955736;28;46472;-68
2022/09/07 05:58:15;;;;;;;13.53;4.73;;;18.60;61.90;;;;;;4956294;28;46588;-69
2022/09/07 06:00:41;;;;;;;6.37;3.70;;;18.80;61.30;;;;;;4954773;28;45973;-69
2022/09/07 06:03:07;;;;;;;14.43;3.90;;;19.50;59.40;;;;;;4953888;28;47022;-67
2022/09/07 06:05:33;;;;;;;10.73;4.13;;;19.60;60.00;;;;;;4954707;28;46504;-67
2022/09/07 06:07:58;;;;;;;5.83;3.97;;;19.80;59.20;;;;;;4951252;28;46393;-69
2022/09/07 06:10:25;;;;;;;32.97;7.00;;;20.10;58.70;;;;;;4954934;28;46669;-69
2022/09/07 06:12:51;;;;;;;11.50;4.00;;;20.70;57.10;;;;;;4952306;28;46528;-71
2022/09/07 06:15:17;;;;;;;22.77;3.90;;;20.70;58.00;;;;;;4954192;28;46833;-69
2022/09/07 06:17:42;;;;;;;6.93;2.90;;;21.10;58.40;;;;;;4956273;28;46532;-69
2022/09/07 06:20:09;;;;;;;15.23;3.50;;;21.60;55.80;;;;;;4955406;28;45919;-69
2022/09/07 06:22:36;;;;;;;15.37;3.60;;;22.30;52.60;;;;;;4957858;28;46433;-70
2022/09/07 06:25:02;;;;;;;12.80;3.50;;;22.40;49.90;;;;;;4957055;28;46448;-70
2022/09/07 06:27:28;;;;;;;10.60;3.17;;;22.40;51.10;;;;;;4958441;28;46504;-70
2022/09/07 06:29:54;;;;;;;5.73;2.80;;;22.40;50.80;;;;;;4952747;28;46575;-71
2022/09/07 06:32:20;;;;;;;9.77;2.70;;;22.30;50.50;;;;;;4954804;28;46463;-71
2022/09/07 06:34:45;;;;;;;7.50;2.87;;;22.40;48.80;;;;;;4955197;28;46028;-70
2022/09/07 06:37:11;;;;;;;10.77;3.40;;;22.30;51.00;;;;;;4953349;28;46432;-69
2022/09/07 06:39:36;;;;;;;12.93;2.97;;;22.30;49.80;;;;;;4955024;28;46617;-69
2022/09/07 06:42:03;;;;;;;12.20;3.10;;;22.40;49.90;;;;;;4953592;28;46396;-69
2022/09/07 06:44:32;;;;;;;12.67;3.10;;;22.50;49.40;;;;;;4954951;28;46446;-70
2022/09/07 06:46:58;;;;;;;8.13;2.50;;;22.60;48.80;;;;;;4952769;28;46362;-70
2022/09/07 06:49:24;;;;;;;8.80;2.60;;;22.60;48.30;;;;;;4954144;28;46317;-70
2022/09/07 06:51:50;;;;;;;8.17;2.83;;;22.60;48.10;;;;;;4953243;28;45948;-70
2022/09/07 06:54:16;;;;;;;6.07;2.30;;;22.60;48.10;;;;;;4953206;28;46281;-69
2022/09/07 06:56:42;;;;;;;12.73;2.80;;;22.60;47.70;;;;;;4953449;28;46372;-69
2022/09/07 06:59:08;;;;;;;5.77;2.60;;;22.70;47.60;;;;;;4949839;28;46716;-70
2022/09/07 07:01:34;;;;;;;11.23;2.63;;;22.90;47.50;;;;;;4954554;28;47273;-69
2022/09/07 07:04:00;;;;;;;8.50;3.40;;;23.10;47.00;;;;;;4952355;28;46404;-69
2022/09/07 07:06:37;;;;;;;7.13;2.57;;;23.20;46.50;;;;;;4956529;28;46553;-69
2022/09/07 07:09:05;;;;;;;6.60;2.63;;;23.30;45.50;;;;;;4958603;28;46369;-69
2022/09/07 07:11:30;;;;;;;9.03;2.27;;;23.50;45.10;;;;;;4956895;28;48149;-69
2022/09/07 07:13:57;;;;;;;8.13;3.20;;;23.70;44.10;;;;;;4969195;28;46212;-68
2022/09/07 07:16:23;;;;;;;4.60;2.30;;;23.90;43.40;;;;;;4973230;28;46399;-68
2022/09/07 07:18:51;;;;;;;10.73;2.13;;;24.10;42.70;;;;;;4957139;28;46335;-69
2022/09/07 07:21:17;;;;;;;10.77;2.10;;;24.40;42.10;;;;;;4957618;28;46420;-70
2022/09/07 07:23:43;;;;;;;9.70;2.80;;;24.60;41.10;;;;;;4956715;28;46508;-70
2022/09/07 07:26:11;;;;;;;8.20;2.80;;;24.70;40.50;;;;;;4958496;28;46449;-68
2022/09/07 07:28:37;;;;;;;9.70;3.40;;;24.70;40.30;;;;;;4956438;28;46506;-68
2022/09/07 07:31:04;;;;;;;9.53;3.40;;;24.80;40.00;;;;;;4957940;28;46437;-69
2022/09/07 07:33:31;;;;;;;12.20;3.73;;;25.00;39.20;;;;;;4956905;28;45921;-69
2022/09/07 07:36:15;;;;;;;14.90;3.63;;;25.10;38.70;;;;;;4958381;28;46507;-68
2022/09/07 07:38:42;;;;;;;6.23;2.27;;;25.10;38.80;;;;;;4959288;28;46513;-69
2022/09/07 07:41:08;;;;;;;8.20;2.40;;;25.10;38.70;;;;;;4950035;28;48331;-70
2022/09/07 07:43:34;;;;;;;5.90;2.63;;;24.90;38.60;;;;;;4958029;28;46637;-68
2022/09/07 07:45:59;;;;;;;9.80;3.20;;;24.90;38.60;;;;;;4958750;28;46463;-69
2022/09/07 07:48:26;;;;;;;6.03;2.20;;;24.80;38.40;;;;;;4957637;28;46389;-69
2022/09/07 07:51:00;;;;;;;6.20;2.23;;;24.90;38.50;;;;;;4956548;28;46421;-68
2022/09/07 07:53:27;;;;;;;6.67;2.87;;;24.80;37.40;;;;;;4957716;28;46534;-70
2022/09/07 07:55:55;;;;;;;6.33;2.30;;;24.90;38.60;;;;;;4957969;28;46529;-69
2022/09/07 07:58:21;;;;;;;5.73;2.67;;;25.10;38.30;;;;;;4960611;28;46488;-70
2022/09/07 08:00:47;;;;;;;6.90;2.10;;;25.10;37.90;;;;;;4960358;28;46703;-70
2022/09/07 08:03:13;;;;;;;9.83;2.23;;;25.20;37.70;;;;;;4962508;28;46432;-69
2022/09/07 08:05:38;;;;;;;6.00;2.20;;;25.20;37.30;;;;;;4962406;28;46827;-70
2022/09/07 08:08:04;;;;;;;9.57;2.50;;;25.20;36.90;;;;;;4959639;28;46422;-68
2022/09/07 08:10:30;;;;;;;9.17;2.23;;;25.20;36.60;;;;;;4960327;28;46452;-69
2022/09/07 08:12:56;;;;;;;5.07;2.57;;;25.20;35.60;;;;;;4961161;28;46351;-69
2022/09/07 08:15:21;;;;;;;4.70;1.90;;;25.20;36.60;;;;;;4961557;28;46427;-67
2022/09/07 08:17:47;;;;;;;11.20;2.17;;;25.40;36.10;;;;;;4961072;28;46463;-68
2022/09/07 08:20:14;;;;;;;6.73;2.20;;;25.40;35.70;;;;;;4960204;28;46547;-68
2022/09/07 08:22:39;;;;;;;7.10;2.60;;;25.40;35.50;;;;;;4960977;28;46454;-67
2022/09/07 08:25:05;;;;;;;7.23;2.70;;;25.50;34.00;;;;;;4957120;28;46384;-67
2022/09/07 08:27:32;;;;;;;7.77;2.73;;;25.50;34.90;;;;;;4961180;28;46654;-68
2022/09/07 08:29:58;;;;;;;7.00;2.07;;;25.70;34.50;;;;;;4960153;28;46427;-69
2022/09/07 08:32:24;;;;;;;5.23;2.30;;;25.70;34.10;;;;;;4961657;28;46479;-69
2022/09/07 08:34:50;;;;;;;5.03;2.20;;;25.50;32.00;;;;;;4961644;28;46411;-69
2022/09/07 08:37:15;;;;;;;7.17;2.30;;;25.60;33.40;;;;;;4959671;28;46395;-69
2022/09/07 08:39:41;;;;;;;4.60;2.00;;;25.80;33.00;;;;;;4960580;28;46301;-70
2022/09/07 08:42:39;;;;;;;6.13;2.10;;;26.00;32.60;;;;;;4960565;28;45915;-70
2022/09/07 08:45:16;;;;;;;14.30;2.30;;;26.30;30.30;;;;;;4960595;28;46648;-68
2022/09/07 08:47:44;;;;;;;8.30;2.30;;;26.30;31.00;;;;;;4961009;28;46428;-68
2022/09/07 08:50:29;;;;;;;6.60;2.73;;;26.20;30.10;;;;;;4961043;28;47043;-69
2022/09/07 08:53:01;;;;;;;6.67;2.47;;;26.10;29.90;;;;;;4960012;28;46363;-68
2022/09/07 08:55:30;;;;;;;15.30;2.57;;;26.10;30.70;;;;;;4961113;28;46584;-69
2022/09/07 08:58:16;;;;;;;7.03;1.77;;;25.90;31.00;;;;;;4960946;28;45832;-68
2022/09/07 09:00:42;;;;;;;4.27;1.57;;;25.80;31.00;;;;;;4959475;28;46446;-69
2022/09/07 09:03:24;;;;;;;8.77;1.87;;;25.70;31.50;;;;;;4959981;28;45773;-69
2022/09/07 09:05:56;;;;;;;9.00;1.90;;;25.80;31.00;;;;;;4959894;28;46503;-68
2022/09/07 09:08:49;;;;;;;7.40;1.90;;;26.10;30.60;;;;;;4958812;28;46583;-70
2022/09/07 09:11:23;;;;;;;4.60;1.70;;;26.20;30.00;;;;;;4959055;28;47230;-70
2022/09/07 09:14:30;;;;;;;7.83;2.20;;;26.20;30.10;;;;;;4959343;28;46806;-69
2022/09/07 09:17:06;;;;;;;6.10;1.60;;;26.30;30.00;;;;;;4960500;28;45872;-70
2022/09/07 09:19:59;;;;;;;6.57;2.27;;;26.10;30.30;;;;;;4958879;28;46353;-70
2022/09/07 09:22:27;;;;;;;8.70;2.17;;;26.00;30.40;;;;;;4958926;28;46431;-70
2022/09/07 09:25:11;;;;;;;6.83;2.00;;;26.00;29.90;;;;;;4959072;28;46653;-70
2022/09/07 09:27:37;;;;;;;9.27;1.90;;;;;;;;;;4959774;28;46476;-67
2022/09/07 09:30:13;;;;;;;6.50;1.73;;;26.00;29.50;;;;;;4961617;28;46413;-69
2022/09/07 09:32:43;;;;;;;4.50;1.90;;;25.70;30.40;;;;;;4960433;28;46447;-70
2022/09/07 09:35:32;;;;;;;4.97;1.60;;;25.60;31.10;;;;;;4959735;28;46471;-69
2022/09/07 09:37:57;;;;;;;8.30;1.83;;;25.60;31.30;;;;;;4960588;28;46332;-70
2022/09/07 09:40:26;;;;;;;8.57;1.70;;;25.70;31.10;;;;;;4960205;28;45882;-70
2022/09/07 09:43:22;;;;;;;8.50;1.90;;;26.00;30.00;;;;;;4959797;28;46415;-69
2022/09/07 09:45:52;;;;;;;9.83;2.63;;;26.00;30.70;;;;;;4959548;28;46696;-69
2022/09/07 09:48:21;;;;;;;8.33;2.00;;;25.90;30.90;;;;;;4959015;28;46443;-69
2022/09/07 09:50:50;;;;;;;4.50;1.80;;;25.70;31.10;;;;;;4959800;28;46058;-69
2022/09/07 09:53:32;;;;;;;8.90;2.30;;;25.50;30.70;;;;;;4959540;28;46621;-68
2022/09/07 09:56:00;;;;;;;6.67;1.90;;;25.30;31.20;;;;;;4960177;28;46465;-68
2022/09/07 09:58:33;;;;;;;10.37;2.07;;;25.20;31.60;;;;;;4960584;28;46733;-69
2022/09/07 10:01:20;;;;;;;5.20;1.97;;;25.30;31.70;;;;;;4961250;28;46407;-69
2022/09/07 10:03:46;;;;;;;9.27;2.07;;;25.20;31.30;;;;;;4959861;28;46470;-69
2022/09/07 10:06:15;;;;;;;6.97;2.13;;;25.30;31.30;;;;;;4959008;28;45892;-69
2022/09/07 10:08:56;;;;;;;7.30;2.07;;;25.30;30.70;;;;;;4958220;28;46429;-69
2022/09/07 10:11:40;;;;;;;9.83;1.77;;;25.50;31.10;;;;;;4960357;28;46388;-69
2022/09/07 10:14:27;;;;;;;5.97;2.00;;;25.70;30.90;;;;;;4960946;28;46404;-70
2022/09/07 10:16:53;;;;;;;7.40;2.47;;;25.80;30.40;;;;;;4958283;28;46368;-68
2022/09/07 10:19:27;;;;;;;12.50;2.23;;;26.10;30.60;;;;;;4959929;28;46476;-69
2022/09/07 10:21:58;;;;;;;6.27;2.23;;;26.50;30.10;;;;;;4957672;28;46773;-69
2022/09/07 10:24:26;;;;;;;13.13;1.90;;;26.70;29.30;;;;;;4950707;28;46621;-68
2022/09/07 10:26:53;;;;;;;11.67;2.47;;;26.30;28.60;;;;;;4952906;28;46416;-70
2022/09/07 10:29:35;;;;;;;10.30;1.83;;;25.90;29.00;;;;;;4950490;28;46737;-69
2022/09/07 10:32:08;;;;;;;6.47;2.13;;;25.80;29.90;;;;;;4952934;28;46693;-70
2022/09/07 10:35:10;;;;;;;11.93;2.20;;;26.00;30.00;;;;;;4954655;28;47188;-70
2022/09/07 10:38:01;;;;;;;4.03;1.80;;;26.30;29.50;;;;;;4953276;28;46450;-69
2022/09/07 10:40:27;;;;;;;4.30;1.63;;;26.10;29.30;;;;;;4953271;28;46355;-68
2022/09/07 10:43:20;;;;;;;12.37;2.33;;;26.00;29.10;;;;;;4958936;28;46533;-69
2022/09/07 10:46:01;;;;;;;10.83;3.07;;;26.00;29.80;;;;;;4958134;28;47164;-69
2022/09/07 10:48:57;;;;;;;7.43;2.07;;;26.00;29.80;;;;;;4953607;28;46247;-69
2022/09/07 10:51:28;;;;;;;7.57;1.77;;;26.20;29.50;;;;;;4951126;28;46437;-70
2022/09/07 10:54:21;;;;;;;10.63;2.27;;;26.20;28.80;;;;;;4955619;28;46301;-69
2022/09/07 10:57:11;;;;;;;11.87;2.10;;;26.20;29.70;;;;;;4957174;28;46894;-69
2022/09/07 10:59:59;;;;;;;8.23;2.27;;;26.50;29.80;;;;;;4953901;28;46368;-68
2022/09/07 11:02:55;;;;;;;8.43;2.10;;;26.70;29.20;;;;;;4956544;28;46428;-70
2022/09/07 11:05:32;;;;;;;6.43;2.03;;;26.80;29.10;;;;;;4953471;28;46632;-69
2022/09/07 11:08:16;;;;;;;7.87;2.20;;;27.10;28.90;;;;;;4953949;28;46683;-70
2022/09/07 11:10:55;;;;;;;13.13;2.10;;;27.00;28.50;;;;;;4954335;28;46445;-69
2022/09/07 11:13:25;;;;;;;4.87;1.73;;;26.70;28.30;;;;;;4950595;28;46497;-70
2022/09/07 11:16:01;;;;;;;7.07;2.00;;;26.60;28.70;;;;;;4953831;28;46452;-71
2022/09/07 11:18:59;;;;;;;7.67;2.27;;;26.70;28.80;;;;;;4952961;28;47595;-71
2022/09/07 11:21:35;;;;;;;8.87;2.30;;;26.80;28.90;;;;;;4989088;28;46437;-68
2022/09/07 11:24:11;;;;;;;6.03;1.87;;;27.00;29.00;;;;;;4953321;28;46472;-70
2022/09/07 11:26:52;;;;;;;5.47;2.13;;;27.20;29.00;;;;;;4954744;28;46368;-69
2022/09/07 11:29:28;;;;;;;4.47;1.80;;;27.30;28.30;;;;;;4955417;28;46433;-70
2022/09/07 11:31:59;;;;;;;7.30;2.00;;;27.40;28.10;;;;;;4953416;28;46376;-69
2022/09/07 11:34:40;;;;;;;7.13;2.07;;;27.30;28.10;;;;;;4954874;28;46519;-69
2022/09/07 11:37:29;;;;;;;8.40;1.90;;;27.40;28.10;;;;;;4954561;28;46503;-68
2022/09/07 11:40:14;;;;;;;9.43;2.07;;;27.50;27.60;;;;;;4948210;28;46414;-69
2022/09/07 11:42:51;;;;;;;11.03;2.27;;;27.60;27.40;;;;;;4953162;28;46385;-69
2022/09/07 11:45:27;;;;;;;11.13;2.10;;;27.50;27.30;;;;;;4950713;28;46750;-69
2022/09/07 11:48:03;;;;;;;8.63;2.17;;;27.70;27.40;;;;;;4952105;28;46793;-69
2022/09/07 11:50:33;;;;;;;8.50;2.27;;;27.60;27.40;;;;;;4953276;28;46397;-69
2022/09/07 11:53:06;;;;;;;8.77;2.27;;;27.20;26.30;;;;;;4957407;28;46444;-70
2022/09/07 11:55:38;;;;;;;4.63;1.80;;;27.10;27.10;;;;;;4954295;28;46602;-70
2022/09/07 11:58:22;;;;;;;6.17;1.83;;;27.30;27.20;;;;;;4952764;28;46627;-70
2022/09/07 12:00:54;;;;;;;5.77;1.90;;;27.20;26.10;;;;;;4953206;28;47481;-69
2022/09/07 12:03:41;;;;;;;6.07;2.10;;;27.20;26.20;;;;;;4954214;28;46427;-69
2022/09/07 12:06:40;;;;;;;12.03;2.73;;;27.10;25.70;;;;;;4948906;28;46574;-70
2022/09/07 12:09:17;;;;;;;7.90;2.30;;;27.30;26.20;;;;;;4950775;28;46758;-68
2022/09/07 12:12:36;;;;;;;10.13;2.50;;;27.60;25.80;;;;;;4954045;28;47120;-70
2022/09/07 12:15:19;;;;;;;6.53;1.90;;;27.50;25.50;;;;;;4968054;28;46961;-68
2022/09/07 12:18:04;;;;;;;4.17;1.90;;;27.40;26.20;;;;;;4953199;28;46506;-68
2022/09/07 12:20:44;;;;;;;5.53;1.67;;;27.40;25.70;;;;;;4954561;28;46388;-69
2022/09/07 12:23:21;;;;;;;8.63;1.93;;;27.50;25.30;;;;;;4952440;28;46380;-69
2022/09/07 12:25:48;;;;;;;7.70;2.50;;;27.40;24.90;;;;;;4955869;28;46320;-69
2022/09/07 12:28:37;;;;;;;6.00;2.10;;;27.30;24.90;;;;;;4954094;28;46409;-70
2022/09/07 12:31:05;;;;;;;12.30;1.90;;;27.30;26.00;;;;;;4948291;28;46387;-68
2022/09/07 12:33:36;;;;;;;10.17;2.53;;;27.40;25.10;;;;;;4955885;28;46421;-69
2022/09/07 12:36:25;;;;;;;9.07;2.00;;;27.30;25.20;;;;;;4948358;28;46416;-68
2022/09/07 12:39:24;;;;;;;8.97;2.00;;;27.40;25.00;;;;;;4952870;28;46467;-69
2022/09/07 12:42:10;;;;;;;7.93;2.20;;;27.50;24.90;;;;;;4950876;28;46441;-68
2022/09/07 12:44:36;;;;;;;7.53;2.00;;;27.50;23.50;;;;;;4955171;28;47168;-70
2022/09/07 12:47:25;;;;;;;6.50;1.73;;;27.50;24.60;;;;;;4961092;28;46412;-70
2022/09/07 12:50:23;;;;;;;12.40;2.40;;;27.70;23.70;;;;;;4964319;28;46509;-69
2022/09/07 12:53:09;;;;;;;5.97;2.47;;;27.50;22.90;;;;;;4953610;28;46436;-69
2022/09/07 12:56:04;;;;;;;10.83;2.03;;;27.50;23.60;;;;;;4959721;28;47933;-70
2022/09/07 12:58:54;;;;;;;7.20;2.10;;;27.60;23.80;;;;;;4954798;28;46392;-69
2022/09/07 13:01:42;;;;;;;6.00;2.00;;;27.60;23.50;;;;;;4958318;28;46732;-69
2022/09/07 13:04:28;;;;;;;5.87;2.00;;;27.60;19.90;;;;;;4953127;28;46382;-70
2022/09/07 13:07:16;;;;;;;5.70;1.70;;;27.70;20.10;;;;;;4957398;28;47066;-69
2022/09/07 13:09:56;;;;;;;4.03;1.90;;;27.80;20.40;;;;;;4954540;28;46341;-69
2022/09/07 13:12:30;;;;;;;9.70;1.97;;;27.80;20.10;;;;;;4955249;28;46392;-69
2022/09/07 13:14:57;;;;;;;6.97;1.90;;;27.80;18.80;;;;;;4957665;28;46320;-69
2022/09/07 13:17:35;;;;;;;8.20;1.83;;;27.70;20.10;;;;;;4957261;28;46430;-70